sensor_id;sensor_type;location;lat;lon;timestamp;P1;durP1;ratioP1;P2;durP2;ratioP2
55134;SDS011;41031;44.750;11.308;2024-03-08T00:00:06;22.93;;;15.37;;
55134;SDS011;41031;44.750;11.308;2024-03-08T00:02:40;24.20;;;15.53;;
55134;SDS011;41031;44.750;11.308;2024-03-08T00:05:08;28.90;;;15.23;;
55134;SDS011;41031;44.750;11.308;2024-03-08T00:07:36;25.77;;;15.57;;
55134;SDS011;41031;44.750;11.308;2024-03-08T00:10:04;26.57;;;15.50;;
55134;SDS011;41031;44.750;11.308;2024-03-08T00:12:32;25.83;;;15.43;;
55134;SDS011;41031;44.750;11.308;2024-03-08T00:14:59;24.77;;;15.03;;
55134;SDS011;41031;44.750;11.308;2024-03-08T00:17:26;23.07;;;14.10;;
55134;SDS011;41031;44.750;11.308;2024-03-08T00:19:54;24.83;;;15.07;;
55134;SDS011;41031;44.750;11.308;2024-03-08T00:22:22;23.33;;;14.70;;
55134;SDS011;41031;44.750;11.308;2024-03-08T00:24:49;27.83;;;16.07;;
55134;SDS011;41031;44.750;11.308;2024-03-08T00:27:17;28.13;;;16.27;;
55134;SDS011;41031;44.750;11.308;2024-03-08T00:29:47;24.40;;;14.63;;
55134;SDS011;41031;44.750;11.308;2024-03-08T00:32:15;25.90;;;14.83;;
55134;SDS011;41031;44.750;11.308;2024-03-08T00:34:43;21.27;;;14.17;;
55134;SDS011;41031;44.750;11.308;2024-03-08T00:37:10;22.07;;;14.20;;
55134;SDS011;41031;44.750;11.308;2024-03-08T00:39:37;20.27;;;13.90;;
55134;SDS011;41031;44.750;11.308;2024-03-08T00:42:04;23.57;;;14.87;;
55134;SDS011;41031;44.750;11.308;2024-03-08T00:44:32;20.47;;;14.10;;
55134;SDS011;41031;44.750;11.308;2024-03-08T00:46:59;23.43;;;14.77;;
55134;SDS011;41031;44.750;11.308;2024-03-08T00:49:26;20.03;;;14.10;;
55134;SDS011;41031;44.750;11.308;2024-03-08T00:51:53;26.70;;;15.10;;
55134;SDS011;41031;44.750;11.308;2024-03-08T00:54:20;25.77;;;15.10;;
55134;SDS011;41031;44.750;11.308;2024-03-08T00:56:48;22.13;;;15.10;;
55134;SDS011;41031;44.750;11.308;2024-03-08T00:59:15;21.67;;;14.53;;
55134;SDS011;41031;44.750;11.308;2024-03-08T01:01:42;25.63;;;15.13;;
55134;SDS011;41031;44.750;11.308;2024-03-08T01:04:10;23.13;;;15.17;;
55134;SDS011;41031;44.750;11.308;2024-03-08T01:06:38;22.43;;;15.10;;
55134;SDS011;41031;44.750;11.308;2024-03-08T01:09:05;21.97;;;14.90;;
55134;SDS011;41031;44.750;11.308;2024-03-08T01:11:33;24.60;;;15.33;;
55134;SDS011;41031;44.750;11.308;2024-03-08T01:14:01;29.10;;;15.50;;
55134;SDS011;41031;44.750;11.308;2024-03-08T01:16:28;23.70;;;15.27;;
55134;SDS011;41031;44.750;11.308;2024-03-08T01:18:55;25.07;;;14.77;;
55134;SDS011;41031;44.750;11.308;2024-03-08T01:21:22;24.27;;;15.77;;
55134;SDS011;41031;44.750;11.308;2024-03-08T01:23:49;25.13;;;15.23;;
55134;SDS011;41031;44.750;11.308;2024-03-08T01:26:17;21.50;;;15.30;;
55134;SDS011;41031;44.750;11.308;2024-03-08T01:28:44;22.83;;;14.13;;
55134;SDS011;41031;44.750;11.308;2024-03-08T01:31:11;24.17;;;14.13;;
55134;SDS011;41031;44.750;11.308;2024-03-08T01:33:38;22.17;;;14.27;;
55134;SDS011;41031;44.750;11.308;2024-03-08T01:36:06;24.43;;;14.90;;
55134;SDS011;41031;44.750;11.308;2024-03-08T01:38:34;25.90;;;13.97;;
55134;SDS011;41031;44.750;11.308;2024-03-08T01:41:02;24.90;;;14.90;;
55134;SDS011;41031;44.750;11.308;2024-03-08T01:43:30;26.43;;;15.57;;
55134;SDS011;41031;44.750;11.308;2024-03-08T01:45:57;27.50;;;14.40;;
55134;SDS011;41031;44.750;11.308;2024-03-08T01:48:26;24.77;;;14.90;;
55134;SDS011;41031;44.750;11.308;2024-03-08T01:50:58;23.77;;;15.27;;
55134;SDS011;41031;44.750;11.308;2024-03-08T01:53:27;23.63;;;15.07;;
55134;SDS011;41031;44.750;11.308;2024-03-08T01:55:56;21.57;;;14.10;;
55134;SDS011;41031;44.750;11.308;2024-03-08T01:58:26;20.33;;;13.93;;
55134;SDS011;41031;44.750;11.308;2024-03-08T02:00:56;20.90;;;13.17;;
55134;SDS011;41031;44.750;11.308;2024-03-08T02:03:26;21.53;;;14.20;;
55134;SDS011;41031;44.750;11.308;2024-03-08T02:05:54;18.00;;;12.93;;
55134;SDS011;41031;44.750;11.308;2024-03-08T02:08:21;22.40;;;13.63;;
55134;SDS011;41031;44.750;11.308;2024-03-08T02:10:49;18.70;;;13.50;;
55134;SDS011;41031;44.750;11.308;2024-03-08T02:13:17;19.10;;;14.03;;
55134;SDS011;41031;44.750;11.308;2024-03-08T02:18:19;20.53;;;13.57;;
55134;SDS011;41031;44.750;11.308;2024-03-08T02:20:47;21.37;;;13.50;;
55134;SDS011;41031;44.750;11.308;2024-03-08T02:23:16;25.37;;;14.13;;
55134;SDS011;41031;44.750;11.308;2024-03-08T02:25:43;20.57;;;13.37;;
55134;SDS011;41031;44.750;11.308;2024-03-08T02:28:11;24.07;;;15.17;;
55134;SDS011;41031;44.750;11.308;2024-03-08T02:30:38;24.33;;;15.17;;
55134;SDS011;41031;44.750;11.308;2024-03-08T02:33:06;25.77;;;14.67;;
55134;SDS011;41031;44.750;11.308;2024-03-08T02:35:35;22.67;;;15.33;;
55134;SDS011;41031;44.750;11.308;2024-03-08T02:38:03;22.93;;;15.43;;
55134;SDS011;41031;44.750;11.308;2024-03-08T02:40:30;22.97;;;14.53;;
55134;SDS011;41031;44.750;11.308;2024-03-08T02:42:58;23.23;;;14.37;;
55134;SDS011;41031;44.750;11.308;2024-03-08T02:45:25;21.37;;;14.17;;
55134;SDS011;41031;44.750;11.308;2024-03-08T02:47:52;20.53;;;14.00;;
55134;SDS011;41031;44.750;11.308;2024-03-08T02:50:20;24.20;;;14.87;;
55134;SDS011;41031;44.750;11.308;2024-03-08T02:52:48;26.83;;;15.87;;
55134;SDS011;41031;44.750;11.308;2024-03-08T02:55:15;25.73;;;16.17;;
55134;SDS011;41031;44.750;11.308;2024-03-08T02:57:43;23.93;;;15.70;;
55134;SDS011;41031;44.750;11.308;2024-03-08T03:00:10;22.47;;;15.50;;
55134;SDS011;41031;44.750;11.308;2024-03-08T03:02:38;26.43;;;16.13;;
55134;SDS011;41031;44.750;11.308;2024-03-08T03:05:05;24.97;;;16.67;;
55134;SDS011;41031;44.750;11.308;2024-03-08T03:07:33;27.53;;;16.40;;
55134;SDS011;41031;44.750;11.308;2024-03-08T03:10:00;24.40;;;16.87;;
55134;SDS011;41031;44.750;11.308;2024-03-08T03:12:28;21.20;;;14.47;;
55134;SDS011;41031;44.750;11.308;2024-03-08T03:14:56;27.77;;;16.30;;
55134;SDS011;41031;44.750;11.308;2024-03-08T03:17:23;23.23;;;16.13;;
55134;SDS011;41031;44.750;11.308;2024-03-08T03:19:53;22.20;;;15.57;;
55134;SDS011;41031;44.750;11.308;2024-03-08T03:22:22;25.10;;;16.40;;
55134;SDS011;41031;44.750;11.308;2024-03-08T03:24:49;19.83;;;14.80;;
55134;SDS011;41031;44.750;11.308;2024-03-08T03:27:18;24.87;;;15.10;;
55134;SDS011;41031;44.750;11.308;2024-03-08T03:29:46;25.40;;;14.97;;
55134;SDS011;41031;44.750;11.308;2024-03-08T03:32:14;22.23;;;15.17;;
55134;SDS011;41031;44.750;11.308;2024-03-08T03:34:41;22.70;;;15.50;;
55134;SDS011;41031;44.750;11.308;2024-03-08T03:37:10;24.83;;;15.03;;
55134;SDS011;41031;44.750;11.308;2024-03-08T03:39:40;21.80;;;14.07;;
55134;SDS011;41031;44.750;11.308;2024-03-08T03:42:18;24.83;;;15.47;;
55134;SDS011;41031;44.750;11.308;2024-03-08T03:44:46;29.83;;;16.13;;
55134;SDS011;41031;44.750;11.308;2024-03-08T03:47:14;22.67;;;15.60;;
55134;SDS011;41031;44.750;11.308;2024-03-08T03:49:42;21.70;;;14.63;;
55134;SDS011;41031;44.750;11.308;2024-03-08T03:52:09;21.90;;;14.40;;
55134;SDS011;41031;44.750;11.308;2024-03-08T03:54:36;22.27;;;15.20;;
55134;SDS011;41031;44.750;11.308;2024-03-08T03:57:04;22.17;;;14.77;;
55134;SDS011;41031;44.750;11.308;2024-03-08T03:59:31;18.70;;;14.07;;
55134;SDS011;41031;44.750;11.308;2024-03-08T04:01:58;23.03;;;14.90;;
55134;SDS011;41031;44.750;11.308;2024-03-08T04:04:26;25.07;;;15.40;;
55134;SDS011;41031;44.750;11.308;2024-03-08T04:06:53;24.10;;;15.17;;
55134;SDS011;41031;44.750;11.308;2024-03-08T04:09:20;24.40;;;14.43;;
55134;SDS011;41031;44.750;11.308;2024-03-08T04:11:49;21.83;;;14.50;;
55134;SDS011;41031;44.750;11.308;2024-03-08T04:14:19;21.20;;;14.93;;
55134;SDS011;41031;44.750;11.308;2024-03-08T04:16:46;20.50;;;14.37;;
55134;SDS011;41031;44.750;11.308;2024-03-08T04:19:14;22.80;;;13.77;;
55134;SDS011;41031;44.750;11.308;2024-03-08T04:21:42;21.27;;;13.67;;
55134;SDS011;41031;44.750;11.308;2024-03-08T04:24:09;22.20;;;14.80;;
55134;SDS011;41031;44.750;11.308;2024-03-08T04:26:37;20.63;;;14.30;;
55134;SDS011;41031;44.750;11.308;2024-03-08T04:29:04;20.70;;;13.27;;
55134;SDS011;41031;44.750;11.308;2024-03-08T04:31:31;19.67;;;12.83;;
55134;SDS011;41031;44.750;11.308;2024-03-08T04:33:58;18.47;;;12.80;;
55134;SDS011;41031;44.750;11.308;2024-03-08T04:36:26;20.17;;;13.03;;
55134;SDS011;41031;44.750;11.308;2024-03-08T04:38:53;19.63;;;13.80;;
55134;SDS011;41031;44.750;11.308;2024-03-08T04:41:20;19.70;;;12.67;;
55134;SDS011;41031;44.750;11.308;2024-03-08T04:43:47;19.83;;;12.90;;
55134;SDS011;41031;44.750;11.308;2024-03-08T04:46:15;23.00;;;14.57;;
55134;SDS011;41031;44.750;11.308;2024-03-08T04:48:42;21.70;;;15.43;;
55134;SDS011;41031;44.750;11.308;2024-03-08T04:51:10;22.43;;;14.87;;
55134;SDS011;41031;44.750;11.308;2024-03-08T04:53:37;23.10;;;14.13;;
55134;SDS011;41031;44.750;11.308;2024-03-08T04:56:05;24.03;;;14.63;;
55134;SDS011;41031;44.750;11.308;2024-03-08T04:58:36;20.03;;;13.30;;
55134;SDS011;41031;44.750;11.308;2024-03-08T05:01:03;22.20;;;14.57;;
55134;SDS011;41031;44.750;11.308;2024-03-08T05:03:30;20.00;;;13.90;;
55134;SDS011;41031;44.750;11.308;2024-03-08T05:05:57;19.87;;;12.47;;
55134;SDS011;41031;44.750;11.308;2024-03-08T05:08:25;22.60;;;14.17;;
55134;SDS011;41031;44.750;11.308;2024-03-08T05:10:52;18.90;;;12.67;;
55134;SDS011;41031;44.750;11.308;2024-03-08T05:13:19;19.87;;;14.00;;
55134;SDS011;41031;44.750;11.308;2024-03-08T05:15:49;21.37;;;14.60;;
55134;SDS011;41031;44.750;11.308;2024-03-08T05:18:17;25.40;;;15.47;;
55134;SDS011;41031;44.750;11.308;2024-03-08T05:20:44;21.73;;;15.17;;
55134;SDS011;41031;44.750;11.308;2024-03-08T05:23:12;25.30;;;15.63;;
55134;SDS011;41031;44.750;11.308;2024-03-08T05:25:39;24.70;;;15.30;;
55134;SDS011;41031;44.750;11.308;2024-03-08T05:28:06;23.70;;;15.77;;
55134;SDS011;41031;44.750;11.308;2024-03-08T05:30:33;28.03;;;16.70;;
55134;SDS011;41031;44.750;11.308;2024-03-08T05:33:02;23.03;;;16.43;;
55134;SDS011;41031;44.750;11.308;2024-03-08T05:35:30;24.63;;;16.23;;
55134;SDS011;41031;44.750;11.308;2024-03-08T05:37:59;25.13;;;16.33;;
55134;SDS011;41031;44.750;11.308;2024-03-08T05:40:26;24.00;;;16.37;;
55134;SDS011;41031;44.750;11.308;2024-03-08T05:42:53;25.53;;;15.73;;
55134;SDS011;41031;44.750;11.308;2024-03-08T05:45:20;26.80;;;16.30;;
55134;SDS011;41031;44.750;11.308;2024-03-08T05:47:47;29.20;;;16.57;;
55134;SDS011;41031;44.750;11.308;2024-03-08T05:50:15;27.63;;;17.37;;
55134;SDS011;41031;44.750;11.308;2024-03-08T05:52:43;27.03;;;16.47;;
55134;SDS011;41031;44.750;11.308;2024-03-08T05:55:10;26.37;;;15.40;;
55134;SDS011;41031;44.750;11.308;2024-03-08T05:57:37;24.53;;;15.13;;
55134;SDS011;41031;44.750;11.308;2024-03-08T06:00:06;20.97;;;14.40;;
55134;SDS011;41031;44.750;11.308;2024-03-08T06:02:38;24.00;;;16.17;;
55134;SDS011;41031;44.750;11.308;2024-03-08T06:05:09;25.17;;;16.23;;
55134;SDS011;41031;44.750;11.308;2024-03-08T06:07:37;28.97;;;17.03;;
55134;SDS011;41031;44.750;11.308;2024-03-08T06:10:08;29.03;;;17.70;;
55134;SDS011;41031;44.750;11.308;2024-03-08T06:12:37;27.83;;;16.87;;
55134;SDS011;41031;44.750;11.308;2024-03-08T06:15:08;20.33;;;13.73;;
55134;SDS011;41031;44.750;11.308;2024-03-08T06:17:37;20.43;;;14.70;;
55134;SDS011;41031;44.750;11.308;2024-03-08T06:20:04;25.10;;;16.97;;
55134;SDS011;41031;44.750;11.308;2024-03-08T06:22:37;26.20;;;16.40;;
55134;SDS011;41031;44.750;11.308;2024-03-08T06:25:07;26.67;;;16.60;;
55134;SDS011;41031;44.750;11.308;2024-03-08T06:27:35;25.37;;;17.67;;
55134;SDS011;41031;44.750;11.308;2024-03-08T06:30:02;23.80;;;15.53;;
55134;SDS011;41031;44.750;11.308;2024-03-08T06:32:31;28.13;;;16.40;;
55134;SDS011;41031;44.750;11.308;2024-03-08T06:35:03;27.60;;;17.63;;
55134;SDS011;41031;44.750;11.308;2024-03-08T06:37:32;28.53;;;17.50;;
55134;SDS011;41031;44.750;11.308;2024-03-08T06:40:00;27.03;;;16.63;;
55134;SDS011;41031;44.750;11.308;2024-03-08T06:42:29;29.70;;;16.10;;
55134;SDS011;41031;44.750;11.308;2024-03-08T06:45:01;30.20;;;18.60;;
55134;SDS011;41031;44.750;11.308;2024-03-08T06:47:33;28.30;;;18.27;;
55134;SDS011;41031;44.750;11.308;2024-03-08T06:50:01;31.30;;;17.03;;
55134;SDS011;41031;44.750;11.308;2024-03-08T06:52:28;30.17;;;19.13;;
55134;SDS011;41031;44.750;11.308;2024-03-08T06:54:55;29.80;;;19.43;;
55134;SDS011;41031;44.750;11.308;2024-03-08T06:57:23;29.57;;;19.17;;
55134;SDS011;41031;44.750;11.308;2024-03-08T06:59:51;28.53;;;18.43;;
55134;SDS011;41031;44.750;11.308;2024-03-08T07:02:19;30.20;;;18.37;;
55134;SDS011;41031;44.750;11.308;2024-03-08T07:04:51;29.60;;;18.93;;
55134;SDS011;41031;44.750;11.308;2024-03-08T07:07:19;26.80;;;18.63;;
55134;SDS011;41031;44.750;11.308;2024-03-08T07:09:46;27.40;;;17.57;;
55134;SDS011;41031;44.750;11.308;2024-03-08T07:12:15;25.17;;;16.63;;
55134;SDS011;41031;44.750;11.308;2024-03-08T07:14:43;21.87;;;16.03;;
55134;SDS011;41031;44.750;11.308;2024-03-08T07:17:12;23.30;;;15.70;;
55134;SDS011;41031;44.750;11.308;2024-03-08T07:19:39;23.67;;;15.33;;
55134;SDS011;41031;44.750;11.308;2024-03-08T07:22:06;23.03;;;14.53;;
55134;SDS011;41031;44.750;11.308;2024-03-08T07:24:35;21.37;;;15.53;;
55134;SDS011;41031;44.750;11.308;2024-03-08T07:27:21;25.70;;;15.70;;
55134;SDS011;41031;44.750;11.308;2024-03-08T07:29:48;23.00;;;14.53;;
55134;SDS011;41031;44.750;11.308;2024-03-08T07:32:15;21.37;;;14.53;;
55134;SDS011;41031;44.750;11.308;2024-03-08T07:34:48;22.90;;;15.20;;
55134;SDS011;41031;44.750;11.308;2024-03-08T07:37:17;20.20;;;14.07;;
55134;SDS011;41031;44.750;11.308;2024-03-08T07:39:45;18.07;;;13.77;;
55134;SDS011;41031;44.750;11.308;2024-03-08T07:42:13;23.73;;;16.00;;
55134;SDS011;41031;44.750;11.308;2024-03-08T07:44:40;23.27;;;16.77;;
55134;SDS011;41031;44.750;11.308;2024-03-08T07:47:07;20.70;;;14.27;;
55134;SDS011;41031;44.750;11.308;2024-03-08T07:49:36;24.13;;;14.70;;
55134;SDS011;41031;44.750;11.308;2024-03-08T07:52:06;18.80;;;13.63;;
55134;SDS011;41031;44.750;11.308;2024-03-08T07:54:34;19.10;;;14.23;;
55134;SDS011;41031;44.750;11.308;2024-03-08T07:57:03;22.33;;;14.63;;
55134;SDS011;41031;44.750;11.308;2024-03-08T07:59:31;17.83;;;12.77;;
55134;SDS011;41031;44.750;11.308;2024-03-08T08:01:58;19.23;;;12.37;;
55134;SDS011;41031;44.750;11.308;2024-03-08T08:04:26;17.23;;;12.90;;
55134;SDS011;41031;44.750;11.308;2024-03-08T08:06:53;19.67;;;13.30;;
55134;SDS011;41031;44.750;11.308;2024-03-08T08:09:21;18.57;;;12.80;;
55134;SDS011;41031;44.750;11.308;2024-03-08T08:11:55;15.53;;;11.70;;
55134;SDS011;41031;44.750;11.308;2024-03-08T08:14:22;16.33;;;12.27;;
55134;SDS011;41031;44.750;11.308;2024-03-08T08:16:49;17.80;;;10.93;;
55134;SDS011;41031;44.750;11.308;2024-03-08T08:19:19;18.27;;;11.93;;
55134;SDS011;41031;44.750;11.308;2024-03-08T08:21:47;18.10;;;10.97;;
55134;SDS011;41031;44.750;11.308;2024-03-08T08:24:15;12.73;;;9.53;;
55134;SDS011;41031;44.750;11.308;2024-03-08T08:26:42;10.17;;;9.13;;
55134;SDS011;41031;44.750;11.308;2024-03-08T08:29:11;9.13;;;8.00;;
55134;SDS011;41031;44.750;11.308;2024-03-08T08:31:38;10.33;;;8.63;;
55134;SDS011;41031;44.750;11.308;2024-03-08T08:34:05;14.37;;;8.97;;
55134;SDS011;41031;44.750;11.308;2024-03-08T08:36:33;17.10;;;10.27;;
55134;SDS011;41031;44.750;11.308;2024-03-08T08:39:00;13.07;;;9.10;;
55134;SDS011;41031;44.750;11.308;2024-03-08T08:41:29;12.20;;;9.90;;
55134;SDS011;41031;44.750;11.308;2024-03-08T08:43:57;12.10;;;9.93;;
55134;SDS011;41031;44.750;11.308;2024-03-08T08:46:40;11.43;;;8.43;;
55134;SDS011;41031;44.750;11.308;2024-03-08T08:49:08;12.93;;;8.80;;
55134;SDS011;41031;44.750;11.308;2024-03-08T08:51:37;9.83;;;8.23;;
55134;SDS011;41031;44.750;11.308;2024-03-08T08:54:05;13.00;;;7.97;;
55134;SDS011;41031;44.750;11.308;2024-03-08T08:56:39;10.90;;;8.30;;
55134;SDS011;41031;44.750;11.308;2024-03-08T08:59:06;11.30;;;8.80;;
55134;SDS011;41031;44.750;11.308;2024-03-08T09:01:34;10.90;;;7.40;;
55134;SDS011;41031;44.750;11.308;2024-03-08T09:04:01;15.40;;;8.03;;
55134;SDS011;41031;44.750;11.308;2024-03-08T09:06:28;11.63;;;7.93;;
55134;SDS011;41031;44.750;11.308;2024-03-08T09:08:56;9.23;;;7.03;;
55134;SDS011;41031;44.750;11.308;2024-03-08T09:11:24;9.00;;;6.40;;
55134;SDS011;41031;44.750;11.308;2024-03-08T09:13:54;12.63;;;7.20;;
55134;SDS011;41031;44.750;11.308;2024-03-08T09:16:21;11.37;;;7.53;;
55134;SDS011;41031;44.750;11.308;2024-03-08T09:18:49;9.80;;;7.13;;
55134;SDS011;41031;44.750;11.308;2024-03-08T09:21:16;8.87;;;6.70;;
55134;SDS011;41031;44.750;11.308;2024-03-08T09:23:45;11.57;;;7.70;;
55134;SDS011;41031;44.750;11.308;2024-03-08T09:26:13;8.10;;;6.60;;
55134;SDS011;41031;44.750;11.308;2024-03-08T09:28:53;8.93;;;7.20;;
55134;SDS011;41031;44.750;11.308;2024-03-08T09:31:24;7.93;;;6.90;;
55134;SDS011;41031;44.750;11.308;2024-03-08T09:33:52;7.87;;;6.67;;
55134;SDS011;41031;44.750;11.308;2024-03-08T09:36:19;8.57;;;7.30;;
55134;SDS011;41031;44.750;11.308;2024-03-08T09:38:46;9.53;;;6.83;;
55134;SDS011;41031;44.750;11.308;2024-03-08T09:41:15;9.13;;;6.67;;
55134;SDS011;41031;44.750;11.308;2024-03-08T09:43:42;8.23;;;6.93;;
55134;SDS011;41031;44.750;11.308;2024-03-08T09:46:09;7.43;;;6.50;;
55134;SDS011;41031;44.750;11.308;2024-03-08T09:48:38;11.80;;;6.43;;
55134;SDS011;41031;44.750;11.308;2024-03-08T09:51:08;6.97;;;6.20;;
55134;SDS011;41031;44.750;11.308;2024-03-08T09:53:35;8.27;;;6.10;;
55134;SDS011;41031;44.750;11.308;2024-03-08T09:56:03;9.10;;;7.87;;
55134;SDS011;41031;44.750;11.308;2024-03-08T09:58:30;9.47;;;6.60;;
55134;SDS011;41031;44.750;11.308;2024-03-08T10:01:01;9.83;;;7.67;;
55134;SDS011;41031;44.750;11.308;2024-03-08T10:03:28;10.00;;;6.00;;
55134;SDS011;41031;44.750;11.308;2024-03-08T10:05:56;7.00;;;5.73;;
55134;SDS011;41031;44.750;11.308;2024-03-08T10:08:30;13.13;;;5.83;;
55134;SDS011;41031;44.750;11.308;2024-03-08T10:10:57;7.73;;;6.00;;
55134;SDS011;41031;44.750;11.308;2024-03-08T10:13:28;10.87;;;6.40;;
55134;SDS011;41031;44.750;11.308;2024-03-08T10:15:56;8.60;;;6.33;;
55134;SDS011;41031;44.750;11.308;2024-03-08T10:18:23;8.53;;;6.67;;
55134;SDS011;41031;44.750;11.308;2024-03-08T10:21:07;7.37;;;6.50;;
55134;SDS011;41031;44.750;11.308;2024-03-08T10:23:37;8.47;;;6.50;;
55134;SDS011;41031;44.750;11.308;2024-03-08T10:26:09;7.90;;;6.37;;
55134;SDS011;41031;44.750;11.308;2024-03-08T10:28:37;8.47;;;6.50;;
55134;SDS011;41031;44.750;11.308;2024-03-08T10:31:04;10.10;;;6.90;;
55134;SDS011;41031;44.750;11.308;2024-03-08T10:33:32;9.73;;;7.10;;
55134;SDS011;41031;44.750;11.308;2024-03-08T10:36:00;13.87;;;7.00;;
55134;SDS011;41031;44.750;11.308;2024-03-08T10:38:27;7.50;;;6.30;;
55134;SDS011;41031;44.750;11.308;2024-03-08T10:40:59;8.20;;;6.50;;
55134;SDS011;41031;44.750;11.308;2024-03-08T10:43:28;10.40;;;6.07;;
55134;SDS011;41031;44.750;11.308;2024-03-08T10:46:12;8.67;;;6.67;;
55134;SDS011;41031;44.750;11.308;2024-03-08T10:49:02;8.90;;;6.57;;
55134;SDS011;41031;44.750;11.308;2024-03-08T10:51:32;10.23;;;6.20;;
55134;SDS011;41031;44.750;11.308;2024-03-08T10:54:00;8.77;;;6.90;;
55134;SDS011;41031;44.750;11.308;2024-03-08T10:56:29;10.10;;;6.50;;
55134;SDS011;41031;44.750;11.308;2024-03-08T10:58:56;11.03;;;6.33;;
55134;SDS011;41031;44.750;11.308;2024-03-08T11:01:24;11.47;;;6.80;;
55134;SDS011;41031;44.750;11.308;2024-03-08T11:03:52;9.93;;;6.87;;
55134;SDS011;41031;44.750;11.308;2024-03-08T11:06:30;9.23;;;6.87;;
55134;SDS011;41031;44.750;11.308;2024-03-08T11:09:08;12.30;;;6.57;;
55134;SDS011;41031;44.750;11.308;2024-03-08T11:12:18;8.60;;;6.07;;
55134;SDS011;41031;44.750;11.308;2024-03-08T11:14:44;7.93;;;6.40;;
55134;SDS011;41031;44.750;11.308;2024-03-08T11:18:01;9.10;;;6.33;;
55134;SDS011;41031;44.750;11.308;2024-03-08T11:20:12;8.97;;;6.20;;
55134;SDS011;41031;44.750;11.308;2024-03-08T11:22:48;8.60;;;6.83;;
55134;SDS011;41031;44.750;11.308;2024-03-08T11:25:40;8.33;;;6.63;;
55134;SDS011;41031;44.750;11.308;2024-03-08T11:28:18;9.33;;;7.20;;
55134;SDS011;41031;44.750;11.308;2024-03-08T11:33:27;8.83;;;6.90;;
55134;SDS011;41031;44.750;11.308;2024-03-08T11:38:41;7.77;;;6.23;;
55134;SDS011;41031;44.750;11.308;2024-03-08T11:41:19;11.53;;;7.17;;
55134;SDS011;41031;44.750;11.308;2024-03-08T11:43:48;11.63;;;6.80;;
55134;SDS011;41031;44.750;11.308;2024-03-08T11:46:16;9.00;;;7.23;;
55134;SDS011;41031;44.750;11.308;2024-03-08T11:48:47;8.80;;;6.93;;
55134;SDS011;41031;44.750;11.308;2024-03-08T11:51:15;8.20;;;6.77;;
55134;SDS011;41031;44.750;11.308;2024-03-08T11:53:45;8.43;;;7.10;;
55134;SDS011;41031;44.750;11.308;2024-03-08T11:56:14;10.97;;;7.47;;
55134;SDS011;41031;44.750;11.308;2024-03-08T11:58:51;13.70;;;6.87;;
55134;SDS011;41031;44.750;11.308;2024-03-08T12:01:26;8.30;;;6.57;;
55134;SDS011;41031;44.750;11.308;2024-03-08T12:03:54;10.03;;;6.93;;
55134;SDS011;41031;44.750;11.308;2024-03-08T12:06:26;8.67;;;6.50;;
55134;SDS011;41031;44.750;11.308;2024-03-08T12:09:03;12.27;;;6.90;;
55134;SDS011;41031;44.750;11.308;2024-03-08T12:11:30;9.90;;;6.47;;
55134;SDS011;41031;44.750;11.308;2024-03-08T12:14:00;7.93;;;6.20;;
55134;SDS011;41031;44.750;11.308;2024-03-08T12:16:28;9.00;;;6.37;;
55134;SDS011;41031;44.750;11.308;2024-03-08T12:18:55;11.67;;;7.87;;
55134;SDS011;41031;44.750;11.308;2024-03-08T12:21:22;8.53;;;7.03;;
55134;SDS011;41031;44.750;11.308;2024-03-08T12:26:48;8.40;;;7.13;;
55134;SDS011;41031;44.750;11.308;2024-03-08T12:29:19;8.90;;;7.20;;
55134;SDS011;41031;44.750;11.308;2024-03-08T12:31:55;11.40;;;7.57;;
55134;SDS011;41031;44.750;11.308;2024-03-08T12:34:27;12.40;;;6.93;;
55134;SDS011;41031;44.750;11.308;2024-03-08T12:36:55;8.47;;;6.87;;
55134;SDS011;41031;44.750;11.308;2024-03-08T12:39:22;9.20;;;7.90;;
55134;SDS011;41031;44.750;11.308;2024-03-08T12:41:54;11.07;;;7.60;;
55134;SDS011;41031;44.750;11.308;2024-03-08T12:44:21;11.57;;;7.43;;
55134;SDS011;41031;44.750;11.308;2024-03-08T12:46:48;9.70;;;7.07;;
55134;SDS011;41031;44.750;11.308;2024-03-08T12:49:19;11.47;;;6.93;;
55134;SDS011;41031;44.750;11.308;2024-03-08T12:51:49;9.07;;;6.77;;
55134;SDS011;41031;44.750;11.308;2024-03-08T12:54:19;10.47;;;7.20;;
55134;SDS011;41031;44.750;11.308;2024-03-08T12:56:50;10.33;;;7.37;;
55134;SDS011;41031;44.750;11.308;2024-03-08T12:59:21;8.77;;;6.80;;
55134;SDS011;41031;44.750;11.308;2024-03-08T13:01:48;9.17;;;6.77;;
55134;SDS011;41031;44.750;11.308;2024-03-08T13:04:17;9.97;;;8.27;;
55134;SDS011;41031;44.750;11.308;2024-03-08T13:06:45;9.53;;;7.87;;
55134;SDS011;41031;44.750;11.308;2024-03-08T13:09:19;9.17;;;7.63;;
55134;SDS011;41031;44.750;11.308;2024-03-08T13:11:46;10.27;;;7.60;;
55134;SDS011;41031;44.750;11.308;2024-03-08T13:14:14;10.50;;;6.87;;
55134;SDS011;41031;44.750;11.308;2024-03-08T13:16:41;9.57;;;8.03;;
55134;SDS011;41031;44.750;11.308;2024-03-08T13:19:14;8.90;;;7.23;;
55134;SDS011;41031;44.750;11.308;2024-03-08T13:21:44;9.50;;;7.40;;
55134;SDS011;41031;44.750;11.308;2024-03-08T13:24:16;10.43;;;7.07;;
55134;SDS011;41031;44.750;11.308;2024-03-08T13:26:45;9.17;;;7.83;;
55134;SDS011;41031;44.750;11.308;2024-03-08T13:29:13;14.93;;;8.43;;
55134;SDS011;41031;44.750;11.308;2024-03-08T13:31:41;10.83;;;7.47;;
55134;SDS011;41031;44.750;11.308;2024-03-08T13:34:08;15.47;;;7.37;;
55134;SDS011;41031;44.750;11.308;2024-03-08T13:36:38;10.10;;;7.87;;
55134;SDS011;41031;44.750;11.308;2024-03-08T13:39:10;10.27;;;7.23;;
55134;SDS011;41031;44.750;11.308;2024-03-08T13:41:43;10.70;;;7.87;;
55134;SDS011;41031;44.750;11.308;2024-03-08T13:44:11;12.80;;;7.53;;
55134;SDS011;41031;44.750;11.308;2024-03-08T13:46:38;9.60;;;7.07;;
55134;SDS011;41031;44.750;11.308;2024-03-08T13:49:06;9.27;;;7.50;;
55134;SDS011;41031;44.750;11.308;2024-03-08T13:51:35;13.87;;;8.10;;
55134;SDS011;41031;44.750;11.308;2024-03-08T13:54:02;12.53;;;7.93;;
55134;SDS011;41031;44.750;11.308;2024-03-08T13:56:33;9.23;;;7.57;;
55134;SDS011;41031;44.750;11.308;2024-03-08T13:59:00;12.83;;;8.20;;
55134;SDS011;41031;44.750;11.308;2024-03-08T14:01:29;11.27;;;8.47;;
55134;SDS011;41031;44.750;11.308;2024-03-08T14:03:56;10.80;;;7.97;;
55134;SDS011;41031;44.750;11.308;2024-03-08T14:06:23;13.30;;;8.13;;
55134;SDS011;41031;44.750;11.308;2024-03-08T14:08:56;13.13;;;8.40;;
55134;SDS011;41031;44.750;11.308;2024-03-08T14:11:24;9.93;;;7.67;;
55134;SDS011;41031;44.750;11.308;2024-03-08T14:13:52;12.50;;;8.87;;
55134;SDS011;41031;44.750;11.308;2024-03-08T14:16:20;11.90;;;8.50;;
55134;SDS011;41031;44.750;11.308;2024-03-08T14:18:49;10.30;;;8.47;;
55134;SDS011;41031;44.750;11.308;2024-03-08T14:21:17;11.73;;;8.47;;
55134;SDS011;41031;44.750;11.308;2024-03-08T14:23:46;14.43;;;8.40;;
55134;SDS011;41031;44.750;11.308;2024-03-08T14:26:15;15.00;;;8.97;;
55134;SDS011;41031;44.750;11.308;2024-03-08T14:28:42;15.27;;;8.77;;
55134;SDS011;41031;44.750;11.308;2024-03-08T14:31:11;11.57;;;9.00;;
55134;SDS011;41031;44.750;11.308;2024-03-08T14:33:46;14.67;;;9.07;;
55134;SDS011;41031;44.750;11.308;2024-03-08T14:36:17;10.53;;;8.03;;